createdAt,value
2018-09-22T00:00:02.672Z,2.00
2018-09-22T00:01:02.664Z,2.20
2018-09-22T00:02:02.657Z,2.20
2018-09-22T00:03:02.653Z,2.20
2018-09-22T00:04:02.640Z,1.90
2018-09-22T00:05:02.619Z,2.30
2018-09-22T00:06:02.612Z,2.10
2018-09-22T00:07:02.615Z,2.50
2018-09-22T00:08:02.589Z,2.60
2018-09-22T00:09:02.577Z,2.30
2018-09-22T00:10:02.579Z,2.20
2018-09-22T00:11:02.552Z,2.20
2018-09-22T00:12:02.545Z,2.20
2018-09-22T00:13:02.584Z,2.10
2018-09-22T00:14:02.526Z,2.10
2018-09-22T00:15:02.509Z,2.10
2018-09-22T00:16:02.522Z,2.70
2018-09-22T00:17:02.488Z,1.90
2018-09-22T00:18:02.476Z,2.40
2018-09-22T00:19:02.470Z,2.30
2018-09-22T00:20:02.468Z,2.60
2018-09-22T00:21:02.452Z,2.40
2018-09-22T00:22:02.437Z,2.20
2018-09-22T00:23:02.423Z,2.20
2018-09-22T00:24:02.419Z,2.40
2018-09-22T00:25:02.413Z,2.40
2018-09-22T00:26:02.688Z,2.20
2018-09-22T00:27:02.383Z,2.30
2018-09-22T00:28:02.366Z,2.30
2018-09-22T00:29:02.358Z,2.70
2018-09-22T00:30:02.348Z,2.40
2018-09-22T00:31:02.332Z,2.30
2018-09-22T00:32:02.584Z,2.10
2018-09-22T00:33:02.315Z,2.60
2018-09-22T00:34:02.572Z,2.50
2018-09-22T00:35:02.289Z,2.50
2018-09-22T00:36:02.291Z,2.00
2018-09-22T00:37:02.268Z,1.80
2018-09-22T00:38:02.263Z,1.90
2018-09-22T00:39:02.258Z,2.40
2018-09-22T00:40:02.247Z,2.00
2018-09-22T00:41:02.754Z,2.20
2018-09-22T00:42:02.241Z,2.40
2018-09-22T00:43:02.200Z,2.30
2018-09-22T00:44:02.461Z,2.30
2018-09-22T00:45:02.187Z,2.30
2018-09-22T00:46:02.169Z,2.10
2018-09-22T00:47:02.153Z,2.20
2018-09-22T00:48:02.669Z,2.30
2018-09-22T00:49:02.136Z,2.10
2018-09-22T00:50:02.125Z,2.40
2018-09-22T00:51:02.119Z,2.10
2018-09-22T00:52:02.099Z,2.30
2018-09-22T00:53:02.353Z,2.50
2018-09-22T00:54:02.091Z,2.10
2018-09-22T00:55:02.069Z,2.20
2018-09-22T00:56:02.069Z,2.60
2018-09-22T00:57:02.046Z,2.00
2018-09-22T00:58:02.035Z,2.00
2018-09-22T00:59:02.160Z,2.20
2018-09-22T01:00:02.018Z,2.20
2018-09-22T01:01:02.000Z,2.60
2018-09-22T01:02:04.907Z,2.10
2018-09-22T01:03:01.983Z,1.70
2018-09-22T01:04:02.007Z,2.20
2018-09-22T01:05:01.957Z,2.00
2018-09-22T01:06:01.966Z,2.70
2018-09-22T01:07:01.935Z,2.20
2018-09-22T01:08:01.927Z,2.20
2018-09-22T01:09:01.932Z,2.10
2018-09-22T01:10:01.962Z,2.40
2018-09-22T01:11:01.895Z,2.40
2018-09-22T01:12:01.882Z,2.60
2018-09-22T01:13:01.874Z,2.20
2018-09-22T01:14:01.874Z,2.20
2018-09-22T01:15:01.854Z,2.30
2018-09-22T01:16:02.113Z,2.30
2018-09-22T01:17:01.861Z,2.20
2018-09-22T01:18:01.815Z,2.30
2018-09-22T01:19:01.803Z,2.10
2018-09-22T01:20:02.059Z,2.00
2018-09-22T01:21:01.791Z,2.20
2018-09-22T01:22:01.774Z,2.30
2018-09-22T01:23:01.772Z,2.10
2018-09-22T01:24:01.754Z,2.00
2018-09-22T01:25:01.740Z,2.30
2018-09-22T01:26:01.746Z,2.10
2018-09-22T01:27:01.984Z,2.10
2018-09-22T01:28:01.705Z,2.20
2018-09-22T01:29:01.730Z,2.10
2018-09-22T01:30:01.696Z,2.40
2018-09-22T01:31:01.672Z,2.10
2018-09-22T01:32:01.673Z,2.00
2018-09-22T01:33:01.653Z,2.30
2018-09-22T01:34:02.172Z,2.10
2018-09-22T01:35:01.632Z,2.90
2018-09-22T01:36:01.635Z,2.20
2018-09-22T01:37:01.614Z,2.10
2018-09-22T01:38:01.594Z,2.20
2018-09-22T01:39:01.583Z,2.10
2018-09-22T01:40:01.578Z,2.50
2018-09-22T01:41:01.562Z,2.40
2018-09-22T01:42:01.566Z,1.90
2018-09-22T01:43:01.543Z,2.70
2018-09-22T01:44:01.527Z,2.20
2018-09-22T01:45:01.519Z,2.00
2018-09-22T01:46:01.508Z,2.00
2018-09-22T01:47:02.972Z,2.20
2018-09-22T01:48:01.486Z,2.20
2018-09-22T01:49:01.473Z,2.20
2018-09-22T01:50:01.477Z,2.40
2018-09-22T01:51:01.451Z,2.40
2018-09-22T01:52:01.440Z,2.00
2018-09-22T01:53:01.686Z,2.10
2018-09-22T01:54:01.421Z,2.80
2018-09-22T01:55:01.679Z,2.30
2018-09-22T01:56:01.398Z,2.30
2018-09-22T01:57:01.384Z,2.30
2018-09-22T01:58:01.371Z,2.30
2018-09-22T01:59:01.617Z,2.00
2018-09-22T02:00:01.353Z,2.30
2018-09-22T02:01:01.403Z,2.20
2018-09-22T02:02:01.341Z,2.30
2018-09-22T02:03:01.318Z,2.10
2018-09-22T02:04:01.309Z,2.30
2018-09-22T02:05:01.298Z,2.20
2018-09-22T02:06:01.555Z,1.90
2018-09-22T02:07:01.545Z,2.50
2018-09-22T02:08:01.275Z,2.20
2018-09-22T02:09:01.261Z,2.30
2018-09-22T02:10:01.249Z,2.20
2018-09-22T02:11:01.231Z,2.00
2018-09-22T02:12:01.217Z,2.20
2018-09-22T02:13:01.224Z,2.20
2018-09-22T02:14:01.198Z,2.40
2018-09-22T02:15:01.197Z,1.90
2018-09-22T02:16:01.175Z,2.00
2018-09-22T02:17:01.177Z,2.00
2018-09-22T02:18:01.158Z,2.10
2018-09-22T02:19:01.142Z,2.10
2018-09-22T02:20:01.132Z,2.20
2018-09-22T02:21:01.132Z,2.10
2018-09-22T02:22:01.374Z,2.50
2018-09-22T02:23:01.099Z,2.30
2018-09-22T02:24:01.091Z,1.80
2018-09-22T02:25:01.074Z,2.60
2018-09-22T02:26:01.063Z,2.30
2018-09-22T02:27:01.053Z,2.30
2018-09-22T02:28:01.041Z,2.30
2018-09-22T02:29:01.036Z,2.30
2018-09-22T02:30:01.027Z,2.40
2018-09-22T02:31:01.008Z,2.10
2018-09-22T02:32:01.264Z,2.20
2018-09-22T02:33:01.518Z,2.20
2018-09-22T02:34:00.980Z,2.20
2018-09-22T02:35:00.973Z,2.40
2018-09-22T02:36:00.955Z,2.40
2018-09-22T02:37:00.942Z,2.20
2018-09-22T02:38:00.929Z,2.10
2018-09-22T02:39:00.920Z,2.00
2018-09-22T02:40:00.910Z,2.20
2018-09-22T02:41:01.162Z,2.10
2018-09-22T02:42:00.887Z,2.10
2018-09-22T02:43:00.880Z,2.80
2018-09-22T02:44:00.881Z,2.20
2018-09-22T02:45:00.856Z,2.50
2018-09-22T02:46:00.846Z,2.10
2018-09-22T02:47:00.836Z,1.80
2018-09-22T02:48:01.095Z,2.20
2018-09-22T02:49:00.810Z,2.40
2018-09-22T02:50:01.073Z,2.20
2018-09-22T02:51:00.797Z,2.50
2018-09-22T02:52:00.781Z,2.30
2018-09-22T02:53:00.768Z,2.80
2018-09-22T02:54:00.753Z,2.30
2018-09-22T02:55:00.758Z,2.30
2018-09-22T02:56:00.734Z,2.10
2018-09-22T02:57:00.719Z,2.30
2018-09-22T02:58:00.715Z,2.60
2018-09-22T02:59:00.700Z,2.00
2018-09-22T03:00:00.692Z,2.00
2018-09-22T03:01:00.684Z,2.50
2018-09-22T03:02:00.934Z,2.30
2018-09-22T03:03:00.653Z,2.20
2018-09-22T03:04:00.647Z,2.10
2018-09-22T03:05:00.640Z,2.00
2018-09-22T03:06:00.883Z,2.30
2018-09-22T03:07:00.612Z,2.30
2018-09-22T03:08:00.602Z,2.30
2018-09-22T03:09:00.589Z,1.90
2018-09-22T03:10:00.717Z,2.30
2018-09-22T03:11:00.569Z,2.20
2018-09-22T03:12:00.565Z,2.00
2018-09-22T03:13:00.549Z,2.10
2018-09-22T03:14:00.532Z,2.20
2018-09-22T03:15:00.523Z,2.30
2018-09-22T03:16:00.517Z,2.20
2018-09-22T03:17:00.500Z,2.50
2018-09-22T03:18:00.490Z,2.20
2018-09-22T03:19:00.479Z,2.50
2018-09-22T03:20:00.475Z,2.60
2018-09-22T03:21:00.459Z,2.10
2018-09-22T03:22:00.445Z,2.40
2018-09-22T03:23:00.434Z,1.90
2018-09-22T03:24:00.434Z,2.70
2018-09-22T03:25:00.414Z,2.30
2018-09-22T03:26:00.408Z,2.00
2018-09-22T03:27:00.387Z,2.20
2018-09-22T03:28:00.376Z,2.50
2018-09-22T03:29:00.369Z,2.50
2018-09-22T03:30:00.360Z,1.90
2018-09-22T03:31:00.353Z,2.10
2018-09-22T03:32:00.334Z,2.00
2018-09-22T03:33:00.330Z,2.10
2018-09-22T03:34:00.316Z,2.00
2018-09-22T03:35:00.301Z,2.20
2018-09-22T03:36:00.583Z,2.00
2018-09-22T03:37:00.281Z,2.30
2018-09-22T03:38:00.266Z,2.40
2018-09-22T03:39:00.271Z,2.20
2018-09-22T03:40:00.246Z,2.00
2018-09-22T03:41:00.236Z,1.90
2018-09-22T03:42:00.482Z,1.90
2018-09-22T03:43:00.234Z,2.10
2018-09-22T03:44:00.469Z,2.00
2018-09-22T03:45:00.466Z,2.60
2018-09-22T03:46:00.190Z,2.20
2018-09-22T03:47:00.173Z,2.20
2018-09-22T03:48:00.156Z,2.30
2018-09-22T03:49:00.143Z,2.10
2018-09-22T03:50:00.139Z,2.70
2018-09-22T03:51:00.133Z,2.10
2018-09-22T03:52:00.118Z,2.20
2018-09-22T03:53:00.493Z,2.10
2018-09-22T03:54:00.092Z,2.00
2018-09-22T03:55:00.082Z,2.40
2018-09-22T03:56:00.069Z,1.90
2018-09-22T03:57:00.058Z,2.40
2018-09-22T03:58:00.062Z,2.10
2018-09-22T03:59:00.038Z,2.10
2018-09-22T04:00:00.029Z,2.30
2018-09-22T04:01:00.022Z,2.40
2018-09-22T04:02:00.002Z,2.70
2018-09-22T04:02:59.995Z,2.40
2018-09-22T04:03:59.979Z,2.20
2018-09-22T04:04:59.971Z,2.00
2018-09-22T04:05:59.968Z,2.40
2018-09-22T04:06:59.961Z,2.00
2018-09-22T04:07:59.935Z,2.00
2018-09-22T04:09:00.190Z,1.90
2018-09-22T04:09:59.920Z,2.10
2018-09-22T04:10:59.901Z,1.90
2018-09-22T04:11:59.895Z,2.40
2018-09-22T04:12:59.888Z,2.20
2018-09-22T04:13:59.868Z,2.20
2018-09-22T04:14:59.873Z,2.30
2018-09-22T04:15:59.855Z,2.00
2018-09-22T04:16:59.839Z,2.00
2018-09-22T04:17:59.838Z,2.10
2018-09-22T04:19:00.079Z,1.90
2018-09-22T04:19:59.821Z,2.10
2018-09-22T04:20:59.793Z,2.40
2018-09-22T04:21:59.787Z,2.20
2018-09-22T04:23:00.033Z,2.30
2018-09-22T04:23:59.757Z,2.30
2018-09-22T04:24:59.749Z,2.30
2018-09-22T04:25:59.744Z,2.30
2018-09-22T04:26:59.729Z,1.90
2018-09-22T04:27:59.727Z,2.10
2018-09-22T04:28:59.972Z,1.90
2018-09-22T04:29:59.691Z,2.00
2018-09-22T04:30:59.689Z,2.20
2018-09-22T04:31:59.673Z,2.70
2018-09-22T04:32:59.660Z,2.30
2018-09-22T04:33:59.917Z,2.00
2018-09-22T04:34:59.639Z,1.90
2018-09-22T04:35:59.642Z,2.20
2018-09-22T04:36:59.631Z,2.30
2018-09-22T04:37:59.873Z,2.00
2018-09-22T04:38:59.596Z,2.30
2018-09-22T04:39:59.603Z,2.00
2018-09-22T04:40:59.577Z,1.90
2018-09-22T04:41:59.564Z,2.10
2018-09-22T04:42:59.554Z,2.20
2018-09-22T04:43:59.542Z,2.10
2018-09-22T04:44:59.652Z,2.10
2018-09-22T04:45:59.519Z,2.10
2018-09-22T04:46:59.510Z,2.10
2018-09-22T04:47:59.493Z,1.80
2018-09-22T04:48:59.485Z,2.10
2018-09-22T04:49:59.477Z,2.10
2018-09-22T04:50:59.468Z,1.70
2018-09-22T04:51:59.468Z,1.80
2018-09-22T04:52:59.721Z,2.20
2018-09-22T04:53:59.432Z,2.40
2018-09-22T04:54:59.419Z,2.30
2018-09-22T04:55:59.405Z,2.20
2018-09-22T04:56:59.401Z,2.20
2018-09-22T04:57:59.397Z,2.00
2018-09-22T04:58:59.636Z,1.80
2018-09-22T04:59:59.365Z,1.90
2018-09-22T05:00:59.351Z,2.20
2018-09-22T05:01:59.343Z,1.90
2018-09-22T05:02:59.328Z,2.30
2018-09-22T05:03:59.318Z,1.70
2018-09-22T05:04:59.312Z,1.80
2018-09-22T05:05:59.317Z,1.80
2018-09-22T05:06:59.286Z,2.10
2018-09-22T05:07:59.277Z,1.90
2018-09-22T05:08:59.263Z,2.00
2018-09-22T05:09:59.251Z,1.80
2018-09-22T05:10:59.511Z,2.30
2018-09-22T05:11:59.500Z,1.90
2018-09-22T05:12:59.228Z,2.20
2018-09-22T05:13:59.205Z,2.20
2018-09-22T05:14:59.201Z,1.90
2018-09-22T05:15:59.191Z,2.00
2018-09-22T05:16:59.234Z,2.00
2018-09-22T05:17:59.182Z,2.20
2018-09-22T05:18:59.151Z,1.90
2018-09-22T05:19:59.139Z,2.10
2018-09-22T05:20:59.144Z,2.00
2018-09-22T05:21:59.396Z,2.10
2018-09-22T05:22:59.121Z,2.20
2018-09-22T05:23:59.098Z,2.70
2018-09-22T05:24:59.089Z,2.10
2018-09-22T05:25:59.078Z,2.10
2018-09-22T05:26:59.066Z,2.20
2018-09-22T05:27:59.056Z,2.50
2018-09-22T05:28:59.039Z,2.10
2018-09-22T05:29:59.029Z,1.90
2018-09-22T05:30:59.020Z,2.20
2018-09-22T05:31:59.025Z,1.80
2018-09-22T05:32:58.997Z,1.90
2018-09-22T05:33:59.030Z,2.10
2018-09-22T05:34:59.245Z,2.10
2018-09-22T05:35:59.116Z,2.00
2018-09-22T05:36:58.972Z,2.10
2018-09-22T05:37:59.167Z,1.60
2018-09-22T05:38:58.936Z,1.70
2018-09-22T05:39:58.923Z,1.90
2018-09-22T05:40:58.914Z,2.00
2018-09-22T05:41:59.337Z,2.10
2018-09-22T05:42:59.234Z,1.90
2018-09-22T05:43:58.876Z,1.80
2018-09-22T05:44:58.865Z,3.00
2018-09-22T05:45:58.870Z,2.00
2018-09-22T05:46:58.845Z,2.20
2018-09-22T05:47:58.859Z,2.10
2018-09-22T05:48:58.827Z,1.90
2018-09-22T05:49:58.812Z,2.00
2018-09-22T05:50:58.800Z,2.10
2018-09-22T05:51:58.789Z,2.10
2018-09-22T05:52:58.783Z,1.80
2018-09-22T05:53:59.460Z,2.00
2018-09-22T05:54:59.024Z,2.10
2018-09-22T05:55:58.744Z,1.90
2018-09-22T05:56:58.788Z,2.40
2018-09-22T05:57:58.751Z,2.60
2018-09-22T05:58:58.726Z,2.50
2018-09-22T05:59:58.701Z,2.30
2018-09-22T06:00:58.706Z,1.80
2018-09-22T06:01:58.677Z,2.20
2018-09-22T06:02:58.669Z,2.10
2018-09-22T06:03:58.762Z,2.00
2018-09-22T06:04:58.913Z,2.00
2018-09-22T06:05:58.902Z,2.30
2018-09-22T06:06:58.632Z,1.90
2018-09-22T06:07:58.616Z,1.80
2018-09-22T06:08:58.606Z,2.50
2018-09-22T06:09:58.594Z,1.70
2018-09-22T06:10:58.580Z,1.90
2018-09-22T06:11:58.577Z,2.30
2018-09-22T06:12:58.613Z,2.30
2018-09-22T06:13:58.547Z,2.20
2018-09-22T06:14:58.540Z,2.00
2018-09-22T06:15:58.529Z,1.90
2018-09-22T06:16:58.522Z,2.30
2018-09-22T06:17:58.512Z,1.90
2018-09-22T06:18:58.491Z,1.70
2018-09-22T06:19:58.485Z,2.30
2018-09-22T06:20:58.472Z,2.00
2018-09-22T06:21:58.727Z,2.40
2018-09-22T06:22:58.471Z,2.00
2018-09-22T06:23:58.438Z,1.80
2018-09-22T06:24:58.426Z,1.80
2018-09-22T06:25:58.418Z,2.30
2018-09-22T06:26:58.404Z,1.90
2018-09-22T06:27:58.413Z,1.80
2018-09-22T06:28:58.387Z,2.30
2018-09-22T06:29:58.373Z,2.20
2018-09-22T06:30:58.361Z,2.00
2018-09-22T06:31:58.400Z,2.30
2018-09-22T06:32:58.610Z,1.90
2018-09-22T06:33:58.327Z,1.80
2018-09-22T06:34:58.331Z,2.30
2018-09-22T06:35:58.576Z,2.10
2018-09-22T06:36:58.294Z,2.00
2018-09-22T06:37:58.428Z,1.90
2018-09-22T06:38:58.272Z,2.00
2018-09-22T06:39:58.268Z,1.90
2018-09-22T06:40:58.252Z,2.40
2018-09-22T06:41:58.238Z,1.80
2018-09-22T06:42:58.229Z,2.10
2018-09-22T06:43:58.486Z,2.00
2018-09-22T06:44:58.206Z,1.90
2018-09-22T06:45:58.197Z,1.90
2018-09-22T06:46:58.201Z,2.20
2018-09-22T06:47:58.186Z,1.80
2018-09-22T06:48:58.292Z,1.90
2018-09-22T06:49:58.416Z,2.10
2018-09-22T06:50:58.131Z,2.50
2018-09-22T06:51:58.133Z,2.00
2018-09-22T06:52:58.122Z,1.80
2018-09-22T06:53:58.107Z,2.60
2018-09-22T06:54:58.210Z,2.30
2018-09-22T06:55:58.084Z,1.80
2018-09-22T06:56:58.083Z,1.90
2018-09-22T06:57:58.078Z,1.80
2018-09-22T06:58:58.051Z,2.10
2018-09-22T06:59:58.039Z,1.80
2018-09-22T07:00:58.029Z,2.20
2018-09-22T07:01:58.124Z,2.10
2018-09-22T07:02:58.013Z,1.80
2018-09-22T07:03:58.263Z,2.20
2018-09-22T07:04:58.004Z,2.30
2018-09-22T07:05:57.983Z,2.00
2018-09-22T07:06:57.961Z,1.90
2018-09-22T07:07:57.961Z,2.00
2018-09-22T07:08:57.941Z,1.80
2018-09-22T07:09:57.926Z,2.00
2018-09-22T07:10:57.922Z,1.90
2018-09-22T07:11:57.909Z,2.20
2018-09-22T07:12:57.899Z,3.30
2018-09-22T07:13:58.550Z,2.80
2018-09-22T07:14:57.875Z,2.20
2018-09-22T07:15:57.866Z,2.20
2018-09-22T07:16:57.848Z,2.20
2018-09-22T07:17:58.106Z,2.00
2018-09-22T07:18:57.833Z,1.70
2018-09-22T07:19:57.823Z,1.90
2018-09-22T07:20:57.807Z,2.30
2018-09-22T07:21:57.862Z,1.90
2018-09-22T07:22:57.799Z,1.90
2018-09-22T07:23:57.778Z,2.30
2018-09-22T07:24:58.032Z,1.90
2018-09-22T07:25:58.017Z,2.10
2018-09-22T07:26:57.752Z,2.00
2018-09-22T07:27:57.727Z,2.00
2018-09-22T07:28:57.983Z,1.90
2018-09-22T07:29:57.723Z,2.10
2018-09-22T07:30:57.896Z,2.20
2018-09-22T07:31:57.701Z,2.00
2018-09-22T07:32:57.681Z,1.70
2018-09-22T07:33:57.663Z,1.60
2018-09-22T07:34:57.914Z,2.10
2018-09-22T07:35:57.650Z,1.70
2018-09-22T07:36:57.640Z,1.80
2018-09-22T07:37:57.612Z,2.20
2018-09-22T07:38:57.606Z,2.10
2018-09-22T07:39:57.595Z,1.90
2018-09-22T07:40:57.584Z,1.70
2018-09-22T07:41:57.578Z,2.10
2018-09-22T07:42:57.842Z,2.00
2018-09-22T07:43:58.552Z,1.70
2018-09-22T07:44:57.541Z,1.90
2018-09-22T07:45:57.798Z,2.20
2018-09-22T07:46:57.519Z,2.00
2018-09-22T07:47:57.505Z,1.90
2018-09-22T07:48:57.497Z,1.70
2018-09-22T07:49:57.487Z,2.00
2018-09-22T07:50:57.473Z,2.00
2018-09-22T07:51:57.463Z,1.70
2018-09-22T07:52:57.450Z,1.80
2018-09-22T07:53:57.553Z,1.90
2018-09-22T07:54:57.428Z,1.80
2018-09-22T07:55:57.431Z,1.70
2018-09-22T07:56:57.537Z,1.60
2018-09-22T07:57:57.397Z,1.80
2018-09-22T07:58:57.389Z,1.90
2018-09-22T07:59:57.375Z,1.40
2018-09-22T08:00:57.365Z,1.80
2018-09-22T08:01:57.346Z,1.70
2018-09-22T08:02:57.345Z,1.80
2018-09-22T08:03:57.366Z,1.80
2018-09-22T08:04:57.586Z,1.70
2018-09-22T08:05:57.307Z,1.80
2018-09-22T08:06:57.304Z,1.80
2018-09-22T08:07:57.293Z,2.00
2018-09-22T08:08:57.538Z,1.50
2018-09-22T08:09:57.261Z,1.70
2018-09-22T08:10:57.253Z,1.70
2018-09-22T08:11:57.502Z,2.10
2018-09-22T08:12:57.231Z,1.70
2018-09-22T08:13:57.217Z,1.80
2018-09-22T08:14:57.211Z,1.60
2018-09-22T08:15:57.199Z,1.60
2018-09-22T08:16:57.187Z,1.80
2018-09-22T08:17:57.183Z,1.80
2018-09-22T08:18:57.166Z,1.90
2018-09-22T08:19:57.177Z,1.60
2018-09-22T08:20:57.157Z,1.60
2018-09-22T08:21:57.132Z,1.60
2018-09-22T08:22:57.127Z,1.60
2018-09-22T08:23:57.125Z,1.60
2018-09-22T08:24:57.115Z,1.70
2018-09-22T08:25:57.087Z,1.70
2018-09-22T08:26:57.078Z,1.50
2018-09-22T08:27:57.065Z,1.90
2018-09-22T08:28:57.079Z,1.80
2018-09-22T08:29:57.045Z,1.50
2018-09-22T08:30:57.048Z,1.50
2018-09-22T08:31:57.287Z,1.50
2018-09-22T08:32:57.317Z,2.00
2018-09-22T08:33:57.001Z,1.60
2018-09-22T08:34:56.995Z,1.60
2018-09-22T08:35:58.518Z,1.60
2018-09-22T08:36:57.142Z,2.00
2018-09-22T08:37:56.955Z,1.40
2018-09-22T08:38:57.212Z,1.70
2018-09-22T08:39:56.932Z,2.00
2018-09-22T08:40:57.180Z,1.60
2018-09-22T08:41:57.173Z,1.80
2018-09-22T08:42:56.903Z,1.80
2018-09-22T08:43:57.052Z,2.10
2018-09-22T08:44:56.941Z,1.70
2018-09-22T08:45:56.868Z,1.90
2018-09-22T08:46:56.856Z,1.60
2018-09-22T08:47:56.953Z,2.00
2018-09-22T08:48:56.831Z,1.70
2018-09-22T08:49:56.847Z,1.80
2018-09-22T08:50:56.854Z,1.60
2018-09-22T08:51:57.058Z,1.50
2018-09-22T08:52:56.787Z,1.60
2018-09-22T08:53:56.776Z,1.70
2018-09-22T08:54:56.768Z,1.70
2018-09-22T08:55:56.767Z,1.60
2018-09-22T08:56:57.003Z,1.60
2018-09-22T08:57:56.793Z,1.80
2018-09-22T08:58:56.847Z,2.00
2018-09-22T08:59:56.731Z,1.80
2018-09-22T09:00:56.819Z,1.90
2018-09-22T09:01:56.956Z,1.90
2018-09-22T09:02:56.697Z,1.70
2018-09-22T09:03:56.930Z,1.90
2018-09-22T09:04:56.713Z,1.60
2018-09-22T09:05:56.682Z,2.10
2018-09-22T09:06:56.635Z,2.00
2018-09-22T09:07:56.889Z,1.70
2018-09-22T09:08:56.628Z,1.90
2018-09-22T09:09:56.601Z,2.00
2018-09-22T09:10:56.588Z,1.60
2018-09-22T09:11:56.578Z,1.70
2018-09-22T09:12:56.567Z,1.70
2018-09-22T09:13:56.925Z,1.70
2018-09-22T09:14:56.804Z,2.00
2018-09-22T09:15:56.532Z,2.10
2018-09-22T09:16:56.550Z,1.70
2018-09-22T09:17:56.638Z,1.90
2018-09-22T09:18:56.516Z,1.70
2018-09-22T09:19:56.495Z,2.00
2018-09-22T09:20:56.478Z,1.90
2018-09-22T09:21:56.739Z,2.00
2018-09-22T09:22:56.715Z,1.90
2018-09-22T09:23:56.453Z,1.70
2018-09-22T09:24:56.437Z,1.80
2018-09-22T09:25:56.702Z,1.70
2018-09-22T09:26:56.415Z,1.70
2018-09-22T09:27:56.401Z,1.70
2018-09-22T09:28:56.497Z,1.80
2018-09-22T09:29:56.657Z,1.90
2018-09-22T09:30:56.472Z,1.60
2018-09-22T09:31:56.445Z,1.80
2018-09-22T09:32:56.457Z,1.70
2018-09-22T09:33:56.333Z,1.80
2018-09-22T09:34:56.330Z,1.90
2018-09-22T09:35:56.576Z,1.80
2018-09-22T09:36:56.462Z,2.00
2018-09-22T09:37:56.298Z,2.10
2018-09-22T09:38:56.315Z,1.80
2018-09-22T09:39:56.289Z,1.60
2018-09-22T09:40:56.256Z,1.80
2018-09-22T09:41:56.245Z,2.00
2018-09-22T09:42:56.240Z,1.90
2018-09-22T09:43:56.227Z,1.80
2018-09-22T09:44:56.217Z,2.00
2018-09-22T09:45:56.205Z,1.70
2018-09-22T09:46:56.206Z,1.90
2018-09-22T09:47:56.227Z,1.60
2018-09-22T09:48:56.177Z,1.80
2018-09-22T09:49:56.161Z,1.90
2018-09-22T09:50:56.152Z,1.90
2018-09-22T09:51:56.142Z,1.50
2018-09-22T09:52:56.132Z,1.70
2018-09-22T09:53:56.147Z,1.70
2018-09-22T09:54:56.116Z,1.80
2018-09-22T09:55:56.139Z,1.60
2018-09-22T09:56:56.089Z,1.50
2018-09-22T09:57:56.078Z,1.90
2018-09-22T09:58:56.065Z,1.80
2018-09-22T09:59:56.062Z,1.80
2018-09-22T10:00:56.347Z,1.50
2018-09-22T10:01:56.042Z,1.80
2018-09-22T10:02:56.016Z,1.60
2018-09-22T10:03:56.009Z,1.60
2018-09-22T10:04:56.019Z,1.40
2018-09-22T10:05:55.982Z,1.40
2018-09-22T10:06:55.973Z,1.80
2018-09-22T10:07:55.978Z,1.50
2018-09-22T10:08:56.075Z,1.50
2018-09-22T10:09:56.210Z,1.60
2018-09-22T10:10:55.944Z,1.70
2018-09-22T10:11:55.984Z,1.70
2018-09-22T10:12:56.008Z,1.70
2018-09-22T10:13:56.153Z,1.40
2018-09-22T10:14:55.889Z,1.50
2018-09-22T10:15:55.886Z,1.80
2018-09-22T10:16:55.872Z,1.60
2018-09-22T10:17:55.961Z,1.50
2018-09-22T10:18:55.836Z,1.80
2018-09-22T10:19:55.964Z,1.40
2018-09-22T10:20:55.816Z,1.50
2018-09-22T10:21:55.808Z,1.60
2018-09-22T10:22:55.794Z,1.40
2018-09-22T10:23:55.788Z,1.30
2018-09-22T10:24:55.791Z,1.50
2018-09-22T10:25:55.762Z,1.20
2018-09-22T10:26:56.016Z,1.50
2018-09-22T10:27:55.811Z,1.40
2018-09-22T10:28:55.784Z,1.40
2018-09-22T10:29:55.726Z,1.30
2018-09-22T10:30:55.783Z,1.20
2018-09-22T10:31:55.692Z,1.40
2018-09-22T10:32:55.682Z,1.20
2018-09-22T10:33:55.673Z,1.10
2018-09-22T10:34:55.666Z,1.20
2018-09-22T10:35:55.655Z,1.10
2018-09-22T10:36:55.654Z,1.50
2018-09-22T10:37:55.626Z,1.40
2018-09-22T10:38:55.881Z,1.40
2018-09-22T10:39:57.369Z,1.40
2018-09-22T10:40:55.615Z,1.40
2018-09-22T10:41:55.608Z,1.30
2018-09-22T10:42:55.575Z,1.20
2018-09-22T10:43:55.559Z,1.40
2018-09-22T10:44:55.615Z,1.30
2018-09-22T10:45:55.809Z,1.50
2018-09-22T10:46:55.527Z,1.40
2018-09-22T10:47:55.516Z,1.30
2018-09-22T10:48:55.614Z,1.80
2018-09-22T10:49:55.498Z,1.60
2018-09-22T10:50:55.497Z,1.80
2018-09-22T10:51:55.737Z,1.40
2018-09-22T10:52:55.480Z,1.50
2018-09-22T10:53:55.461Z,1.40
2018-09-22T10:54:55.443Z,1.70
2018-09-22T10:55:55.429Z,1.60
2018-09-22T10:56:55.416Z,1.60
2018-09-22T10:57:55.504Z,1.60
2018-09-22T10:58:55.409Z,1.80
2018-09-22T10:59:55.393Z,1.40
2018-09-22T11:00:55.640Z,1.60
2018-09-22T11:01:55.362Z,1.50
2018-09-22T11:02:55.354Z,1.50
2018-09-22T11:03:55.344Z,1.80
2018-09-22T11:04:55.328Z,1.60
2018-09-22T11:05:55.327Z,1.50
2018-09-22T11:06:55.324Z,1.30
2018-09-22T11:07:55.305Z,1.30
2018-09-22T11:08:55.290Z,1.50
2018-09-22T11:09:55.288Z,1.70
2018-09-22T11:10:55.284Z,1.60
2018-09-22T11:11:55.255Z,1.50
2018-09-22T11:12:55.249Z,1.40
2018-09-22T11:13:55.235Z,1.40
2018-09-22T11:14:55.238Z,1.40
2018-09-22T11:15:55.213Z,1.50
2018-09-22T11:16:55.200Z,1.30
2018-09-22T11:17:55.203Z,1.60
2018-09-22T11:18:55.181Z,1.60
2018-09-22T11:19:55.171Z,1.60
2018-09-22T11:20:55.170Z,1.70
2018-09-22T11:21:55.149Z,1.60
2018-09-22T11:22:55.142Z,1.90
2018-09-22T11:23:55.385Z,1.60
2018-09-22T11:24:55.115Z,1.70
2018-09-22T11:25:55.106Z,1.30
2018-09-22T11:26:55.283Z,1.60
2018-09-22T11:27:55.894Z,1.90
2018-09-22T11:28:55.072Z,1.80
2018-09-22T11:29:55.061Z,2.00
2018-09-22T11:30:55.063Z,1.50
2018-09-22T11:31:55.038Z,1.80
2018-09-22T11:32:55.026Z,1.60
2018-09-22T11:33:55.125Z,1.30
2018-09-22T11:34:55.006Z,1.90
2018-09-22T11:35:55.000Z,1.60
2018-09-22T11:36:55.016Z,1.60
2018-09-22T11:37:55.074Z,1.90
2018-09-22T11:38:55.019Z,1.80
2018-09-22T11:39:54.951Z,1.60
2018-09-22T11:40:54.948Z,1.70
2018-09-22T11:41:55.046Z,1.80
2018-09-22T11:42:55.304Z,1.80
2018-09-22T11:43:54.908Z,1.40
2018-09-22T11:44:54.900Z,1.80
2018-09-22T11:45:54.896Z,1.50
2018-09-22T11:46:54.876Z,1.70
2018-09-22T11:47:54.863Z,1.40
2018-09-22T11:48:54.854Z,1.80
2018-09-22T11:49:54.839Z,1.70
2018-09-22T11:50:54.848Z,1.70
2018-09-22T11:51:54.819Z,1.70
2018-09-22T11:52:54.811Z,1.60
2018-09-22T11:53:55.062Z,1.30
2018-09-22T11:54:54.788Z,1.70
2018-09-22T11:55:54.778Z,1.80
2018-09-22T11:56:54.867Z,1.60
2018-09-22T11:57:54.772Z,1.80
2018-09-22T11:58:54.743Z,1.60
2018-09-22T11:59:54.731Z,1.50
2018-09-22T12:00:54.737Z,1.70
2018-09-22T12:01:54.730Z,1.40
2018-09-22T12:02:54.701Z,1.60
2018-09-22T12:03:54.688Z,1.40
2018-09-22T12:04:54.676Z,1.50
2018-09-22T12:05:54.714Z,1.30
2018-09-22T12:06:54.670Z,1.60
2018-09-22T12:07:54.642Z,1.30
2018-09-22T12:08:54.632Z,1.40
2018-09-22T12:09:54.623Z,1.70
2018-09-22T12:10:54.610Z,1.60
2018-09-22T12:11:56.195Z,1.40
2018-09-22T12:12:54.594Z,1.50
2018-09-22T12:13:54.604Z,1.40
2018-09-22T12:14:54.581Z,1.20
2018-09-22T12:15:54.566Z,1.60
2018-09-22T12:16:54.549Z,1.50
2018-09-22T12:17:54.534Z,1.60
2018-09-22T12:18:54.518Z,1.40
2018-09-22T12:19:54.513Z,1.80
2018-09-22T12:20:54.513Z,1.50
2018-09-22T12:21:54.502Z,1.70
2018-09-22T12:22:54.595Z,1.30
2018-09-22T12:23:55.663Z,1.30
2018-09-22T12:24:54.458Z,1.70
2018-09-22T12:25:54.457Z,1.20
2018-09-22T12:26:54.519Z,1.10
2018-09-22T12:27:54.424Z,1.10
2018-09-22T12:28:54.425Z,1.50
2018-09-22T12:29:54.401Z,1.50
2018-09-22T12:30:54.387Z,1.60
2018-09-22T12:31:54.459Z,1.20
2018-09-22T12:32:54.367Z,1.50
2018-09-22T12:33:54.358Z,1.30
2018-09-22T12:34:54.365Z,1.50
2018-09-22T12:35:54.346Z,1.20
2018-09-22T12:36:54.825Z,1.80
2018-09-22T12:37:54.311Z,1.50
2018-09-22T12:38:54.337Z,1.40
2018-09-22T12:39:54.302Z,1.60
2018-09-22T12:40:54.281Z,1.70
2018-09-22T12:41:54.389Z,1.50
2018-09-22T12:42:54.256Z,1.60
2018-09-22T12:43:54.251Z,1.60
2018-09-22T12:44:54.281Z,1.30
2018-09-22T12:45:54.268Z,1.90
2018-09-22T12:46:54.214Z,1.50
2018-09-22T12:47:54.199Z,1.70
2018-09-22T12:48:54.204Z,1.50
2018-09-22T12:49:54.179Z,1.60
2018-09-22T12:50:54.173Z,1.70
2018-09-22T12:51:54.167Z,1.60
2018-09-22T12:52:54.162Z,1.50
2018-09-22T12:53:54.135Z,1.80
2018-09-22T12:54:54.243Z,1.70
2018-09-22T12:55:54.111Z,2.00
2018-09-22T12:56:54.369Z,1.60
2018-09-22T12:57:54.095Z,1.60
2018-09-22T12:58:54.099Z,1.50
2018-09-22T12:59:54.184Z,1.60
2018-09-22T13:00:54.425Z,1.50
2018-09-22T13:01:54.312Z,1.40
2018-09-22T13:02:54.037Z,1.40
2018-09-22T13:03:54.117Z,1.40
2018-09-22T13:04:54.014Z,1.40
2018-09-22T13:05:54.007Z,1.40
2018-09-22T13:06:53.995Z,1.30
2018-09-22T13:07:53.982Z,1.60
2018-09-22T13:08:54.068Z,1.50
2018-09-22T13:09:54.342Z,1.40
2018-09-22T13:10:53.957Z,1.40
2018-09-22T13:11:53.946Z,1.20
2018-09-22T13:12:54.190Z,1.60
2018-09-22T13:13:54.188Z,1.60
2018-09-22T13:14:53.921Z,1.40
2018-09-22T13:15:53.899Z,1.20
2018-09-22T13:16:53.885Z,1.30
2018-09-22T13:17:53.881Z,1.40